Green Island, NY (12183)

11:51 PM EST on February 09, 2016 (GMT -0500)
South Troy | | Change Station
CLOSE
Current Station
Personal Weather Station
Location: Troy, NY
Elevation: 102 ft
Nearby Weather Stations

Elev 102 ft 42.72 °N, 73.69 °W | Updated 30 seconds ago

Overcast
Overcast
26.4 °F
Feels Like 26 °F
N
1.6
Wind Variable Wind from SE
Gusts 2.2 mph

Today
High -- | Low -- °F
--% Chance of Precip.
Yesterday
High -- | Low -- °F
Precip. -- in
Pressure 29.59 in
Visibility 10.0 miles
Clouds Mostly Cloudy 4400 ft
Overcast 5500 ft
Windchill 26 °F
Dew Point 26 °F
Humidity 99%
Rainfall 0.05 in
Snow Depth Not available.
7:00 AM 5:18 PM
Waxing Crescent, 3% visible
METAR KALB 100351Z 00000KT 10SM -SN BKN044 OVC055 M02/M05 A2958 RMK AO2 SNB50 SLP020 PCPN VRY LGT P0000 T10221050 $
Pressure 29.59 in
Visibility 10.0 miles
Clouds Mostly Cloudy 4400 ft
Overcast 5500 ft
Windchill 26 °F
Dew Point 26 °F
Humidity 99%
Rainfall 0.05 in
Snow Depth Not available.
7:00 AM 5:18 PM
Waxing Crescent, 3% visible
METAR KALB 100351Z 00000KT 10SM -SN BKN044 OVC055 M02/M05 A2958 RMK AO2 SNB50 SLP020 PCPN VRY LGT P0000 T10221050 $

10-Day Weather Forecast

Almanac

Astronomy

Feb. 09, 2016 Rise Set
Actual Time
Civil Twilight
Nautical Twilight
Astronomical Twilight
Moon
Length of Visible Light
Length of Day
Tomorrow will be .
, % of the Moon is Illuminated

Today's Extremes

State Highs State Lows

Community

WunderPhotos

Upload Photos

1,891,810 photos uploaded!

WunderBlog® & News

Nearby

Air Quality

  Air Quality AQ Index Pollutant
Not available.

Snow Depth

Station Depth Elevation

Earthquake Activity

City Distance Mag. Time & Date
Minimum magnitude displayed is 2.5.

Coastal Water Temperatures

Place Temperature

Stations

Nearby Weather Stations

Station Location Temp. Windchill Dew Point Humidity Wind Precip. Elev Updated Type
                   

Watches & Warnings

There are currently no watches in effect.